sensor_id;sensor_type;location;lat;lon;timestamp;P1;durP1;ratioP1;P2;durP2;ratioP2
3379;SDS011;1703;51.964;7.642;2023-01-16T00:01:15;2.60;;;1.10;;
3379;SDS011;1703;51.964;7.642;2023-01-16T00:03:42;1.93;;;1.23;;
3379;SDS011;1703;51.964;7.642;2023-01-16T00:06:09;2.93;;;1.73;;
3379;SDS011;1703;51.964;7.642;2023-01-16T00:08:36;2.90;;;1.00;;
3379;SDS011;1703;51.964;7.642;2023-01-16T00:11:02;1.33;;;1.00;;
3379;SDS011;1703;51.964;7.642;2023-01-16T00:13:29;2.90;;;1.10;;
3379;SDS011;1703;51.964;7.642;2023-01-16T00:15:58;1.00;;;0.90;;
3379;SDS011;1703;51.964;7.642;2023-01-16T00:18:24;2.10;;;1.10;;
3379;SDS011;1703;51.964;7.642;2023-01-16T00:20:51;5.33;;;2.00;;
3379;SDS011;1703;51.964;7.642;2023-01-16T00:23:18;3.17;;;0.90;;
3379;SDS011;1703;51.964;7.642;2023-01-16T00:25:45;2.67;;;1.07;;
3379;SDS011;1703;51.964;7.642;2023-01-16T00:28:12;6.50;;;1.77;;
3379;SDS011;1703;51.964;7.642;2023-01-16T00:30:39;6.10;;;1.43;;
3379;SDS011;1703;51.964;7.642;2023-01-16T00:33:09;12.33;;;1.20;;
3379;SDS011;1703;51.964;7.642;2023-01-16T00:35:37;4.90;;;1.17;;
3379;SDS011;1703;51.964;7.642;2023-01-16T00:38:04;2.30;;;0.70;;
3379;SDS011;1703;51.964;7.642;2023-01-16T00:40:31;8.30;;;1.70;;
3379;SDS011;1703;51.964;7.642;2023-01-16T00:42:57;4.97;;;1.40;;
3379;SDS011;1703;51.964;7.642;2023-01-16T00:45:24;3.77;;;1.60;;
3379;SDS011;1703;51.964;7.642;2023-01-16T00:47:51;6.50;;;1.50;;
3379;SDS011;1703;51.964;7.642;2023-01-16T00:50:19;4.90;;;1.60;;
3379;SDS011;1703;51.964;7.642;2023-01-16T00:52:46;3.77;;;1.33;;
3379;SDS011;1703;51.964;7.642;2023-01-16T00:55:13;10.97;;;0.97;;
3379;SDS011;1703;51.964;7.642;2023-01-16T00:57:40;3.43;;;1.37;;
3379;SDS011;1703;51.964;7.642;2023-01-16T01:00:07;3.03;;;2.30;;
3379;SDS011;1703;51.964;7.642;2023-01-16T01:02:35;15.17;;;1.77;;
3379;SDS011;1703;51.964;7.642;2023-01-16T01:05:02;6.43;;;1.30;;
3379;SDS011;1703;51.964;7.642;2023-01-16T01:07:32;11.03;;;2.10;;
3379;SDS011;1703;51.964;7.642;2023-01-16T01:09:59;3.53;;;1.10;;
3379;SDS011;1703;51.964;7.642;2023-01-16T01:12:26;4.73;;;1.43;;
3379;SDS011;1703;51.964;7.642;2023-01-16T01:14:53;1.80;;;1.20;;
3379;SDS011;1703;51.964;7.642;2023-01-16T01:17:19;8.00;;;1.20;;
3379;SDS011;1703;51.964;7.642;2023-01-16T01:19:46;2.30;;;1.37;;
3379;SDS011;1703;51.964;7.642;2023-01-16T01:22:13;2.83;;;1.37;;
3379;SDS011;1703;51.964;7.642;2023-01-16T01:24:43;4.00;;;1.50;;
3379;SDS011;1703;51.964;7.642;2023-01-16T01:27:13;6.43;;;1.50;;
3379;SDS011;1703;51.964;7.642;2023-01-16T01:29:40;4.47;;;1.60;;
3379;SDS011;1703;51.964;7.642;2023-01-16T01:32:07;4.20;;;1.93;;
3379;SDS011;1703;51.964;7.642;2023-01-16T01:34:34;2.00;;;1.83;;
3379;SDS011;1703;51.964;7.642;2023-01-16T01:37:01;3.70;;;3.10;;
3379;SDS011;1703;51.964;7.642;2023-01-16T01:39:29;10.93;;;3.40;;
3379;SDS011;1703;51.964;7.642;2023-01-16T01:41:57;3.73;;;2.40;;
3379;SDS011;1703;51.964;7.642;2023-01-16T01:44:45;11.73;;;2.70;;
3379;SDS011;1703;51.964;7.642;2023-01-16T01:47:15;6.60;;;2.47;;
3379;SDS011;1703;51.964;7.642;2023-01-16T01:49:45;3.43;;;2.17;;
3379;SDS011;1703;51.964;7.642;2023-01-16T01:52:14;4.90;;;2.30;;
3379;SDS011;1703;51.964;7.642;2023-01-16T01:54:42;4.90;;;2.10;;
3379;SDS011;1703;51.964;7.642;2023-01-16T01:57:13;3.73;;;1.83;;
3379;SDS011;1703;51.964;7.642;2023-01-16T01:59:44;7.73;;;2.00;;
3379;SDS011;1703;51.964;7.642;2023-01-16T02:02:16;10.77;;;2.93;;
3379;SDS011;1703;51.964;7.642;2023-01-16T02:04:46;3.93;;;1.70;;
3379;SDS011;1703;51.964;7.642;2023-01-16T02:07:17;1.63;;;1.53;;
3379;SDS011;1703;51.964;7.642;2023-01-16T02:09:46;2.50;;;1.87;;
3379;SDS011;1703;51.964;7.642;2023-01-16T02:12:15;4.90;;;1.90;;
3379;SDS011;1703;51.964;7.642;2023-01-16T02:14:43;3.87;;;1.70;;
3379;SDS011;1703;51.964;7.642;2023-01-16T02:17:14;3.47;;;1.30;;
3379;SDS011;1703;51.964;7.642;2023-01-16T02:20:05;7.87;;;2.03;;
3379;SDS011;1703;51.964;7.642;2023-01-16T02:29:10;5.47;;;1.00;;
3379;SDS011;1703;51.964;7.642;2023-01-16T02:32:11;0.80;;;0.70;;
3379;SDS011;1703;51.964;7.642;2023-01-16T02:34:51;3.13;;;1.00;;
3379;SDS011;1703;51.964;7.642;2023-01-16T02:37:34;4.37;;;0.87;;
3379;SDS011;1703;51.964;7.642;2023-01-16T02:40:14;3.37;;;1.83;;
3379;SDS011;1703;51.964;7.642;2023-01-16T02:42:57;3.90;;;1.00;;
3379;SDS011;1703;51.964;7.642;2023-01-16T02:45:31;5.83;;;1.70;;
3379;SDS011;1703;51.964;7.642;2023-01-16T02:48:10;6.13;;;0.90;;
3379;SDS011;1703;51.964;7.642;2023-01-16T02:50:44;2.53;;;1.00;;
3379;SDS011;1703;51.964;7.642;2023-01-16T02:53:21;1.30;;;0.90;;
3379;SDS011;1703;51.964;7.642;2023-01-16T02:55:53;1.30;;;1.00;;
3379;SDS011;1703;51.964;7.642;2023-01-16T02:58:22;3.63;;;1.30;;
3379;SDS011;1703;51.964;7.642;2023-01-16T03:00:51;3.60;;;1.77;;
3379;SDS011;1703;51.964;7.642;2023-01-16T03:03:41;1.60;;;1.30;;
3379;SDS011;1703;51.964;7.642;2023-01-16T03:06:13;10.63;;;1.77;;
3379;SDS011;1703;51.964;7.642;2023-01-16T03:08:52;5.27;;;1.57;;
3379;SDS011;1703;51.964;7.642;2023-01-16T03:11:29;1.90;;;1.00;;
3379;SDS011;1703;51.964;7.642;2023-01-16T03:14:12;2.03;;;1.10;;
3379;SDS011;1703;51.964;7.642;2023-01-16T03:16:59;5.23;;;1.30;;
3379;SDS011;1703;51.964;7.642;2023-01-16T03:19:52;4.50;;;1.50;;
3379;SDS011;1703;51.964;7.642;2023-01-16T03:22:30;10.53;;;1.23;;
3379;SDS011;1703;51.964;7.642;2023-01-16T03:25:08;6.37;;;1.50;;
3379;SDS011;1703;51.964;7.642;2023-01-16T03:27:44;4.53;;;1.13;;
3379;SDS011;1703;51.964;7.642;2023-01-16T03:30:23;4.03;;;1.50;;
3379;SDS011;1703;51.964;7.642;2023-01-16T03:32:56;5.07;;;1.30;;
3379;SDS011;1703;51.964;7.642;2023-01-16T03:35:28;5.63;;;1.00;;
3379;SDS011;1703;51.964;7.642;2023-01-16T03:37:57;7.40;;;1.10;;
3379;SDS011;1703;51.964;7.642;2023-01-16T03:40:30;3.13;;;1.20;;
3379;SDS011;1703;51.964;7.642;2023-01-16T03:43:00;3.50;;;1.00;;
3379;SDS011;1703;51.964;7.642;2023-01-16T03:45:32;6.00;;;0.90;;
3379;SDS011;1703;51.964;7.642;2023-01-16T03:48:05;5.60;;;1.00;;
3379;SDS011;1703;51.964;7.642;2023-01-16T03:50:37;5.23;;;1.00;;
3379;SDS011;1703;51.964;7.642;2023-01-16T03:53:08;9.13;;;1.47;;
3379;SDS011;1703;51.964;7.642;2023-01-16T03:55:39;3.43;;;0.90;;
3379;SDS011;1703;51.964;7.642;2023-01-16T03:58:10;3.03;;;0.93;;
3379;SDS011;1703;51.964;7.642;2023-01-16T04:00:43;4.57;;;1.30;;
3379;SDS011;1703;51.964;7.642;2023-01-16T04:03:19;4.10;;;1.93;;
3379;SDS011;1703;51.964;7.642;2023-01-16T04:05:53;1.27;;;1.03;;
3379;SDS011;1703;51.964;7.642;2023-01-16T04:08:42;4.40;;;1.70;;
3379;SDS011;1703;51.964;7.642;2023-01-16T04:11:12;1.40;;;1.07;;
3379;SDS011;1703;51.964;7.642;2023-01-16T04:13:41;1.43;;;0.97;;
3379;SDS011;1703;51.964;7.642;2023-01-16T04:16:10;4.00;;;1.20;;
3379;SDS011;1703;51.964;7.642;2023-01-16T04:18:43;2.53;;;1.37;;
3379;SDS011;1703;51.964;7.642;2023-01-16T04:21:12;1.73;;;1.50;;
3379;SDS011;1703;51.964;7.642;2023-01-16T04:23:39;5.13;;;1.60;;
3379;SDS011;1703;51.964;7.642;2023-01-16T04:26:07;2.80;;;1.20;;
3379;SDS011;1703;51.964;7.642;2023-01-16T04:28:33;5.37;;;1.30;;
3379;SDS011;1703;51.964;7.642;2023-01-16T04:31:00;2.00;;;1.37;;
3379;SDS011;1703;51.964;7.642;2023-01-16T04:33:27;7.97;;;1.23;;
3379;SDS011;1703;51.964;7.642;2023-01-16T04:35:54;6.30;;;1.20;;
3379;SDS011;1703;51.964;7.642;2023-01-16T04:38:22;3.00;;;1.40;;
3379;SDS011;1703;51.964;7.642;2023-01-16T04:40:52;1.00;;;0.80;;
3379;SDS011;1703;51.964;7.642;2023-01-16T04:43:19;1.73;;;1.00;;
3379;SDS011;1703;51.964;7.642;2023-01-16T04:45:45;2.03;;;1.33;;
3379;SDS011;1703;51.964;7.642;2023-01-16T04:48:13;2.00;;;1.10;;
3379;SDS011;1703;51.964;7.642;2023-01-16T04:50:39;7.03;;;1.23;;
3379;SDS011;1703;51.964;7.642;2023-01-16T04:53:06;1.00;;;1.00;;
3379;SDS011;1703;51.964;7.642;2023-01-16T04:55:34;3.60;;;1.20;;
3379;SDS011;1703;51.964;7.642;2023-01-16T04:58:01;2.40;;;1.17;;
3379;SDS011;1703;51.964;7.642;2023-01-16T05:00:28;2.67;;;0.80;;
3379;SDS011;1703;51.964;7.642;2023-01-16T05:02:55;2.70;;;1.10;;
3379;SDS011;1703;51.964;7.642;2023-01-16T05:05:21;1.33;;;0.93;;
3379;SDS011;1703;51.964;7.642;2023-01-16T05:07:48;2.03;;;1.10;;
3379;SDS011;1703;51.964;7.642;2023-01-16T05:10:36;2.90;;;0.87;;
3379;SDS011;1703;51.964;7.642;2023-01-16T05:13:03;1.23;;;0.70;;
3379;SDS011;1703;51.964;7.642;2023-01-16T05:15:30;1.17;;;0.80;;
3379;SDS011;1703;51.964;7.642;2023-01-16T05:17:57;1.27;;;0.70;;
3379;SDS011;1703;51.964;7.642;2023-01-16T05:20:24;10.93;;;1.30;;
3379;SDS011;1703;51.964;7.642;2023-01-16T05:22:51;5.60;;;1.03;;
3379;SDS011;1703;51.964;7.642;2023-01-16T05:25:17;0.70;;;0.70;;
3379;SDS011;1703;51.964;7.642;2023-01-16T05:27:49;4.97;;;1.07;;
3379;SDS011;1703;51.964;7.642;2023-01-16T05:30:16;0.70;;;0.63;;
3379;SDS011;1703;51.964;7.642;2023-01-16T05:32:43;1.67;;;0.97;;
3379;SDS011;1703;51.964;7.642;2023-01-16T05:35:10;8.43;;;1.90;;
3379;SDS011;1703;51.964;7.642;2023-01-16T05:37:37;4.80;;;1.13;;
3379;SDS011;1703;51.964;7.642;2023-01-16T05:40:04;0.90;;;0.80;;
3379;SDS011;1703;51.964;7.642;2023-01-16T05:42:32;1.23;;;0.80;;
3379;SDS011;1703;51.964;7.642;2023-01-16T05:45:00;1.53;;;0.80;;
3379;SDS011;1703;51.964;7.642;2023-01-16T05:47:26;3.00;;;1.10;;
3379;SDS011;1703;51.964;7.642;2023-01-16T05:49:53;0.63;;;0.60;;
3379;SDS011;1703;51.964;7.642;2023-01-16T05:52:23;2.13;;;1.00;;
3379;SDS011;1703;51.964;7.642;2023-01-16T05:54:50;2.03;;;1.00;;
3379;SDS011;1703;51.964;7.642;2023-01-16T05:57:17;2.10;;;1.00;;
3379;SDS011;1703;51.964;7.642;2023-01-16T05:59:47;4.03;;;0.90;;
3379;SDS011;1703;51.964;7.642;2023-01-16T06:02:15;8.67;;;1.20;;
3379;SDS011;1703;51.964;7.642;2023-01-16T06:04:42;1.83;;;0.63;;
3379;SDS011;1703;51.964;7.642;2023-01-16T06:07:09;1.83;;;1.07;;
3379;SDS011;1703;51.964;7.642;2023-01-16T06:09:36;2.87;;;0.77;;
3379;SDS011;1703;51.964;7.642;2023-01-16T06:12:03;1.87;;;0.93;;
3379;SDS011;1703;51.964;7.642;2023-01-16T06:14:32;1.67;;;0.90;;
3379;SDS011;1703;51.964;7.642;2023-01-16T06:16:59;2.30;;;0.60;;
3379;SDS011;1703;51.964;7.642;2023-01-16T06:19:27;2.20;;;1.20;;
3379;SDS011;1703;51.964;7.642;2023-01-16T06:22:08;1.93;;;0.73;;
3379;SDS011;1703;51.964;7.642;2023-01-16T06:24:37;2.07;;;0.80;;
3379;SDS011;1703;51.964;7.642;2023-01-16T06:27:04;1.00;;;0.50;;
3379;SDS011;1703;51.964;7.642;2023-01-16T06:29:31;6.57;;;1.00;;
3379;SDS011;1703;51.964;7.642;2023-01-16T06:31:59;1.57;;;0.80;;
3379;SDS011;1703;51.964;7.642;2023-01-16T06:34:28;0.93;;;0.77;;
3379;SDS011;1703;51.964;7.642;2023-01-16T06:36:54;1.10;;;0.70;;
3379;SDS011;1703;51.964;7.642;2023-01-16T06:39:21;0.60;;;0.60;;
3379;SDS011;1703;51.964;7.642;2023-01-16T06:41:48;0.77;;;0.77;;
3379;SDS011;1703;51.964;7.642;2023-01-16T06:44:17;0.60;;;0.60;;
3379;SDS011;1703;51.964;7.642;2023-01-16T06:46:44;1.10;;;0.70;;
3379;SDS011;1703;51.964;7.642;2023-01-16T06:49:10;5.93;;;0.83;;
3379;SDS011;1703;51.964;7.642;2023-01-16T06:51:39;1.40;;;0.90;;
3379;SDS011;1703;51.964;7.642;2023-01-16T06:54:09;5.70;;;0.90;;
3379;SDS011;1703;51.964;7.642;2023-01-16T06:56:38;2.97;;;1.10;;
3379;SDS011;1703;51.964;7.642;2023-01-16T06:59:05;1.00;;;0.90;;
3379;SDS011;1703;51.964;7.642;2023-01-16T07:01:32;1.23;;;0.77;;
3379;SDS011;1703;51.964;7.642;2023-01-16T07:03:59;2.10;;;0.90;;
3379;SDS011;1703;51.964;7.642;2023-01-16T07:06:26;1.00;;;0.90;;
3379;SDS011;1703;51.964;7.642;2023-01-16T07:08:54;7.03;;;1.07;;
3379;SDS011;1703;51.964;7.642;2023-01-16T07:11:21;2.47;;;0.77;;
3379;SDS011;1703;51.964;7.642;2023-01-16T07:13:50;0.70;;;0.70;;
3379;SDS011;1703;51.964;7.642;2023-01-16T07:16:39;1.60;;;1.00;;
3379;SDS011;1703;51.964;7.642;2023-01-16T07:19:25;8.37;;;1.27;;
3379;SDS011;1703;51.964;7.642;2023-01-16T07:22:10;2.80;;;0.93;;
3379;SDS011;1703;51.964;7.642;2023-01-16T07:24:59;6.63;;;0.93;;
3379;SDS011;1703;51.964;7.642;2023-01-16T07:27:26;1.00;;;0.80;;
3379;SDS011;1703;51.964;7.642;2023-01-16T07:29:54;4.40;;;0.97;;
3379;SDS011;1703;51.964;7.642;2023-01-16T07:32:21;5.70;;;0.90;;
3379;SDS011;1703;51.964;7.642;2023-01-16T07:34:48;4.70;;;0.90;;
3379;SDS011;1703;51.964;7.642;2023-01-16T07:37:15;1.53;;;1.00;;
3379;SDS011;1703;51.964;7.642;2023-01-16T07:39:42;3.67;;;0.90;;
3379;SDS011;1703;51.964;7.642;2023-01-16T07:42:10;1.47;;;0.80;;
3379;SDS011;1703;51.964;7.642;2023-01-16T07:44:37;0.80;;;0.70;;
3379;SDS011;1703;51.964;7.642;2023-01-16T07:47:04;1.23;;;0.90;;
3379;SDS011;1703;51.964;7.642;2023-01-16T07:49:30;11.13;;;1.20;;
3379;SDS011;1703;51.964;7.642;2023-01-16T07:51:57;3.70;;;1.23;;
3379;SDS011;1703;51.964;7.642;2023-01-16T07:54:24;1.20;;;0.87;;
3379;SDS011;1703;51.964;7.642;2023-01-16T07:56:51;1.37;;;0.50;;
3379;SDS011;1703;51.964;7.642;2023-01-16T07:59:19;3.23;;;0.80;;
3379;SDS011;1703;51.964;7.642;2023-01-16T08:01:45;4.37;;;0.70;;
3379;SDS011;1703;51.964;7.642;2023-01-16T08:04:15;2.20;;;0.93;;
3379;SDS011;1703;51.964;7.642;2023-01-16T08:06:42;1.00;;;0.80;;
3379;SDS011;1703;51.964;7.642;2023-01-16T08:09:10;4.00;;;0.80;;
3379;SDS011;1703;51.964;7.642;2023-01-16T08:11:37;1.20;;;0.90;;
3379;SDS011;1703;51.964;7.642;2023-01-16T08:14:05;0.80;;;0.67;;
3379;SDS011;1703;51.964;7.642;2023-01-16T08:16:34;2.80;;;0.93;;
3379;SDS011;1703;51.964;7.642;2023-01-16T08:19:00;2.00;;;0.77;;
3379;SDS011;1703;51.964;7.642;2023-01-16T08:21:28;1.30;;;1.17;;
3379;SDS011;1703;51.964;7.642;2023-01-16T08:23:55;2.00;;;1.20;;
3379;SDS011;1703;51.964;7.642;2023-01-16T08:26:22;5.20;;;0.93;;
3379;SDS011;1703;51.964;7.642;2023-01-16T08:28:49;1.93;;;1.13;;
3379;SDS011;1703;51.964;7.642;2023-01-16T08:31:17;1.10;;;1.00;;
3379;SDS011;1703;51.964;7.642;2023-01-16T08:33:45;0.93;;;0.73;;
3379;SDS011;1703;51.964;7.642;2023-01-16T08:36:15;3.47;;;1.20;;
3379;SDS011;1703;51.964;7.642;2023-01-16T08:38:45;3.23;;;1.17;;
3379;SDS011;1703;51.964;7.642;2023-01-16T08:41:12;0.80;;;0.80;;
3379;SDS011;1703;51.964;7.642;2023-01-16T08:43:53;4.03;;;1.00;;
3379;SDS011;1703;51.964;7.642;2023-01-16T08:46:37;3.87;;;1.20;;
3379;SDS011;1703;51.964;7.642;2023-01-16T08:49:24;1.10;;;1.00;;
3379;SDS011;1703;51.964;7.642;2023-01-16T08:52:09;2.27;;;1.20;;
3379;SDS011;1703;51.964;7.642;2023-01-16T08:54:36;0.97;;;0.93;;
3379;SDS011;1703;51.964;7.642;2023-01-16T08:57:04;1.40;;;0.90;;
3379;SDS011;1703;51.964;7.642;2023-01-16T08:59:31;3.13;;;0.97;;
3379;SDS011;1703;51.964;7.642;2023-01-16T09:01:59;1.00;;;0.70;;
3379;SDS011;1703;51.964;7.642;2023-01-16T09:04:28;3.23;;;1.33;;
3379;SDS011;1703;51.964;7.642;2023-01-16T09:06:55;1.00;;;0.73;;
3379;SDS011;1703;51.964;7.642;2023-01-16T09:09:22;2.00;;;1.00;;
3379;SDS011;1703;51.964;7.642;2023-01-16T09:11:53;2.10;;;1.30;;
3379;SDS011;1703;51.964;7.642;2023-01-16T09:14:39;2.23;;;1.60;;
3379;SDS011;1703;51.964;7.642;2023-01-16T09:17:06;4.23;;;0.83;;
3379;SDS011;1703;51.964;7.642;2023-01-16T09:19:35;4.20;;;1.10;;
3379;SDS011;1703;51.964;7.642;2023-01-16T09:22:02;3.70;;;1.33;;
3379;SDS011;1703;51.964;7.642;2023-01-16T09:24:31;1.17;;;0.90;;
3379;SDS011;1703;51.964;7.642;2023-01-16T09:26:58;1.50;;;0.77;;
3379;SDS011;1703;51.964;7.642;2023-01-16T09:29:25;1.47;;;1.10;;
3379;SDS011;1703;51.964;7.642;2023-01-16T09:31:52;2.00;;;1.03;;
3379;SDS011;1703;51.964;7.642;2023-01-16T09:34:19;2.93;;;1.40;;
3379;SDS011;1703;51.964;7.642;2023-01-16T09:36:47;3.87;;;1.70;;
3379;SDS011;1703;51.964;7.642;2023-01-16T09:39:14;6.73;;;1.57;;
3379;SDS011;1703;51.964;7.642;2023-01-16T09:41:44;1.50;;;0.90;;
3379;SDS011;1703;51.964;7.642;2023-01-16T09:44:39;2.30;;;0.90;;
3379;SDS011;1703;51.964;7.642;2023-01-16T09:47:09;3.33;;;0.90;;
3379;SDS011;1703;51.964;7.642;2023-01-16T09:49:38;1.10;;;0.87;;
3379;SDS011;1703;51.964;7.642;2023-01-16T09:52:14;1.40;;;1.30;;
3379;SDS011;1703;51.964;7.642;2023-01-16T09:55:03;2.70;;;1.00;;
3379;SDS011;1703;51.964;7.642;2023-01-16T09:57:57;2.60;;;1.10;;
3379;SDS011;1703;51.964;7.642;2023-01-16T10:00:42;1.10;;;1.00;;
3379;SDS011;1703;51.964;7.642;2023-01-16T10:03:10;1.57;;;1.00;;
3379;SDS011;1703;51.964;7.642;2023-01-16T10:05:38;5.50;;;1.10;;
3379;SDS011;1703;51.964;7.642;2023-01-16T10:08:13;2.77;;;1.53;;
3379;SDS011;1703;51.964;7.642;2023-01-16T10:10:50;1.40;;;0.80;;
3379;SDS011;1703;51.964;7.642;2023-01-16T10:13:38;4.23;;;0.80;;
3379;SDS011;1703;51.964;7.642;2023-01-16T10:16:28;4.17;;;1.10;;
3379;SDS011;1703;51.964;7.642;2023-01-16T10:19:05;2.60;;;1.00;;
3379;SDS011;1703;51.964;7.642;2023-01-16T10:24:37;1.30;;;0.90;;
3379;SDS011;1703;51.964;7.642;2023-01-16T10:27:16;3.17;;;1.43;;
3379;SDS011;1703;51.964;7.642;2023-01-16T10:29:46;3.93;;;1.20;;
3379;SDS011;1703;51.964;7.642;2023-01-16T10:32:19;4.93;;;2.00;;
3379;SDS011;1703;51.964;7.642;2023-01-16T10:34:54;2.93;;;1.00;;
3379;SDS011;1703;51.964;7.642;2023-01-16T10:37:25;9.23;;;1.73;;
3379;SDS011;1703;51.964;7.642;2023-01-16T10:39:55;2.20;;;1.17;;
3379;SDS011;1703;51.964;7.642;2023-01-16T10:42:24;2.60;;;0.90;;
3379;SDS011;1703;51.964;7.642;2023-01-16T10:45:13;1.10;;;0.80;;
3379;SDS011;1703;51.964;7.642;2023-01-16T10:47:59;3.43;;;1.57;;
3379;SDS011;1703;51.964;7.642;2023-01-16T10:50:44;2.13;;;1.10;;
3379;SDS011;1703;51.964;7.642;2023-01-16T10:53:12;1.00;;;0.90;;
3379;SDS011;1703;51.964;7.642;2023-01-16T10:55:42;2.20;;;1.00;;
3379;SDS011;1703;51.964;7.642;2023-01-16T10:58:18;2.60;;;1.20;;
3379;SDS011;1703;51.964;7.642;2023-01-16T11:00:49;2.17;;;1.03;;
3379;SDS011;1703;51.964;7.642;2023-01-16T11:03:19;1.57;;;1.23;;
3379;SDS011;1703;51.964;7.642;2023-01-16T11:05:54;2.30;;;1.23;;
3379;SDS011;1703;51.964;7.642;2023-01-16T11:08:32;1.27;;;0.87;;
3379;SDS011;1703;51.964;7.642;2023-01-16T11:11:01;1.87;;;0.90;;
3379;SDS011;1703;51.964;7.642;2023-01-16T11:13:28;1.07;;;0.70;;
3379;SDS011;1703;51.964;7.642;2023-01-16T11:16:18;2.93;;;0.90;;
3379;SDS011;1703;51.964;7.642;2023-01-16T11:19:14;0.90;;;0.80;;
3379;SDS011;1703;51.964;7.642;2023-01-16T11:21:43;1.47;;;0.77;;
3379;SDS011;1703;51.964;7.642;2023-01-16T11:24:14;3.77;;;1.10;;
3379;SDS011;1703;51.964;7.642;2023-01-16T11:26:45;0.70;;;0.70;;
3379;SDS011;1703;51.964;7.642;2023-01-16T11:29:15;1.23;;;0.57;;
3379;SDS011;1703;51.964;7.642;2023-01-16T11:31:47;1.83;;;1.10;;
3379;SDS011;1703;51.964;7.642;2023-01-16T11:34:14;1.37;;;0.80;;
3379;SDS011;1703;51.964;7.642;2023-01-16T11:36:41;0.90;;;0.80;;
3379;SDS011;1703;51.964;7.642;2023-01-16T11:39:09;1.53;;;0.60;;
3379;SDS011;1703;51.964;7.642;2023-01-16T11:41:47;1.80;;;0.90;;
3379;SDS011;1703;51.964;7.642;2023-01-16T11:44:17;1.77;;;0.83;;
3379;SDS011;1703;51.964;7.642;2023-01-16T11:47:04;0.70;;;0.67;;
3379;SDS011;1703;51.964;7.642;2023-01-16T11:49:33;0.60;;;0.60;;
3379;SDS011;1703;51.964;7.642;2023-01-16T11:52:02;1.37;;;1.07;;
3379;SDS011;1703;51.964;7.642;2023-01-16T11:54:30;1.33;;;0.70;;
3379;SDS011;1703;51.964;7.642;2023-01-16T12:03:00;2.00;;;0.60;;
3379;SDS011;1703;51.964;7.642;2023-01-16T12:05:41;0.60;;;0.60;;
3379;SDS011;1703;51.964;7.642;2023-01-16T12:08:30;0.60;;;0.50;;
3379;SDS011;1703;51.964;7.642;2023-01-16T12:11:22;0.90;;;0.70;;
3379;SDS011;1703;51.964;7.642;2023-01-16T12:14:00;0.67;;;0.60;;
3379;SDS011;1703;51.964;7.642;2023-01-16T12:19:39;3.50;;;0.70;;
3379;SDS011;1703;51.964;7.642;2023-01-16T12:22:19;0.70;;;0.53;;
3379;SDS011;1703;51.964;7.642;2023-01-16T12:24:59;2.23;;;0.60;;
3379;SDS011;1703;51.964;7.642;2023-01-16T12:27:34;0.70;;;0.60;;
3379;SDS011;1703;51.964;7.642;2023-01-16T12:30:15;3.07;;;0.70;;
3379;SDS011;1703;51.964;7.642;2023-01-16T12:32:51;0.77;;;0.50;;
3379;SDS011;1703;51.964;7.642;2023-01-16T12:35:30;0.63;;;0.57;;
3379;SDS011;1703;51.964;7.642;2023-01-16T12:38:12;0.73;;;0.70;;
3379;SDS011;1703;51.964;7.642;2023-01-16T12:40:47;2.57;;;0.80;;
3379;SDS011;1703;51.964;7.642;2023-01-16T12:43:52;0.60;;;0.60;;
3379;SDS011;1703;51.964;7.642;2023-01-16T12:46:34;1.10;;;0.60;;
3379;SDS011;1703;51.964;7.642;2023-01-16T12:49:11;1.37;;;0.70;;
3379;SDS011;1703;51.964;7.642;2023-01-16T12:51:52;1.00;;;0.67;;
3379;SDS011;1703;51.964;7.642;2023-01-16T12:54:31;2.30;;;0.63;;
3379;SDS011;1703;51.964;7.642;2023-01-16T12:57:14;0.60;;;0.50;;
3379;SDS011;1703;51.964;7.642;2023-01-16T12:59:56;1.10;;;0.60;;
3379;SDS011;1703;51.964;7.642;2023-01-16T13:02:29;1.23;;;0.80;;
3379;SDS011;1703;51.964;7.642;2023-01-16T13:05:01;0.70;;;0.60;;
3379;SDS011;1703;51.964;7.642;2023-01-16T13:07:31;0.77;;;0.60;;
3379;SDS011;1703;51.964;7.642;2023-01-16T13:10:01;0.60;;;0.50;;
3379;SDS011;1703;51.964;7.642;2023-01-16T13:12:54;1.30;;;0.57;;
3379;SDS011;1703;51.964;7.642;2023-01-16T13:15:41;0.80;;;0.57;;
3379;SDS011;1703;51.964;7.642;2023-01-16T13:18:14;0.90;;;0.80;;
3379;SDS011;1703;51.964;7.642;2023-01-16T13:20:45;1.10;;;0.70;;
3379;SDS011;1703;51.964;7.642;2023-01-16T13:23:16;1.03;;;0.60;;
3379;SDS011;1703;51.964;7.642;2023-01-16T13:25:47;2.40;;;0.73;;
3379;SDS011;1703;51.964;7.642;2023-01-16T13:28:23;0.73;;;0.50;;
3379;SDS011;1703;51.964;7.642;2023-01-16T13:30:56;1.60;;;0.83;;
3379;SDS011;1703;51.964;7.642;2023-01-16T13:33:29;3.70;;;0.67;;
3379;SDS011;1703;51.964;7.642;2023-01-16T13:36:01;1.93;;;0.60;;
3379;SDS011;1703;51.964;7.642;2023-01-16T13:38:40;1.20;;;0.90;;
3379;SDS011;1703;51.964;7.642;2023-01-16T13:41:25;1.57;;;0.80;;
3379;SDS011;1703;51.964;7.642;2023-01-16T13:43:57;0.60;;;0.60;;
3379;SDS011;1703;51.964;7.642;2023-01-16T13:46:43;1.67;;;0.97;;
3379;SDS011;1703;51.964;7.642;2023-01-16T13:49:16;1.10;;;0.60;;
3379;SDS011;1703;51.964;7.642;2023-01-16T13:51:46;2.40;;;0.60;;
3379;SDS011;1703;51.964;7.642;2023-01-16T13:54:16;0.90;;;0.70;;
3379;SDS011;1703;51.964;7.642;2023-01-16T13:56:55;0.80;;;0.63;;
3379;SDS011;1703;51.964;7.642;2023-01-16T14:02:22;1.10;;;0.70;;
3379;SDS011;1703;51.964;7.642;2023-01-16T14:07:47;1.37;;;0.77;;
3379;SDS011;1703;51.964;7.642;2023-01-16T14:10:38;0.70;;;0.70;;
3379;SDS011;1703;51.964;7.642;2023-01-16T14:13:12;0.70;;;0.67;;
3379;SDS011;1703;51.964;7.642;2023-01-16T14:15:47;1.50;;;0.80;;
3379;SDS011;1703;51.964;7.642;2023-01-16T14:18:36;1.27;;;0.97;;
3379;SDS011;1703;51.964;7.642;2023-01-16T14:21:10;0.70;;;0.70;;
3379;SDS011;1703;51.964;7.642;2023-01-16T14:23:45;0.60;;;0.50;;
3379;SDS011;1703;51.964;7.642;2023-01-16T14:26:32;0.67;;;0.67;;
3379;SDS011;1703;51.964;7.642;2023-01-16T14:29:05;1.30;;;0.80;;
3379;SDS011;1703;51.964;7.642;2023-01-16T14:31:40;2.17;;;0.73;;
3379;SDS011;1703;51.964;7.642;2023-01-16T14:34:10;1.83;;;0.70;;
3379;SDS011;1703;51.964;7.642;2023-01-16T14:36:43;0.80;;;0.60;;
3379;SDS011;1703;51.964;7.642;2023-01-16T14:39:25;0.60;;;0.60;;
3379;SDS011;1703;51.964;7.642;2023-01-16T14:41:54;0.50;;;0.50;;
3379;SDS011;1703;51.964;7.642;2023-01-16T14:47:44;4.40;;;0.90;;
3379;SDS011;1703;51.964;7.642;2023-01-16T14:50:43;0.80;;;0.70;;
3379;SDS011;1703;51.964;7.642;2023-01-16T14:53:34;1.83;;;0.83;;
3379;SDS011;1703;51.964;7.642;2023-01-16T14:56:24;1.50;;;0.77;;
3379;SDS011;1703;51.964;7.642;2023-01-16T14:58:54;0.80;;;0.60;;
3379;SDS011;1703;51.964;7.642;2023-01-16T15:01:31;1.10;;;0.90;;
3379;SDS011;1703;51.964;7.642;2023-01-16T15:04:18;0.60;;;0.60;;
3379;SDS011;1703;51.964;7.642;2023-01-16T15:06:48;0.70;;;0.70;;
3379;SDS011;1703;51.964;7.642;2023-01-16T15:09:21;1.37;;;0.70;;
3379;SDS011;1703;51.964;7.642;2023-01-16T15:11:50;1.50;;;0.90;;
3379;SDS011;1703;51.964;7.642;2023-01-16T15:14:23;1.53;;;0.70;;
3379;SDS011;1703;51.964;7.642;2023-01-16T15:16:58;0.97;;;0.67;;
3379;SDS011;1703;51.964;7.642;2023-01-16T15:19:59;1.33;;;0.77;;
3379;SDS011;1703;51.964;7.642;2023-01-16T15:22:50;1.30;;;0.80;;
3379;SDS011;1703;51.964;7.642;2023-01-16T15:25:31;2.60;;;1.00;;
3379;SDS011;1703;51.964;7.642;2023-01-16T15:28:25;3.33;;;1.83;;
3379;SDS011;1703;51.964;7.642;2023-01-16T15:30:58;0.70;;;0.70;;
3379;SDS011;1703;51.964;7.642;2023-01-16T15:33:27;3.33;;;0.90;;
3379;SDS011;1703;51.964;7.642;2023-01-16T15:36:20;0.80;;;0.60;;
3379;SDS011;1703;51.964;7.642;2023-01-16T15:38:50;0.70;;;0.60;;
3379;SDS011;1703;51.964;7.642;2023-01-16T15:41:21;0.80;;;0.80;;
3379;SDS011;1703;51.964;7.642;2023-01-16T15:44:14;1.07;;;0.80;;
3379;SDS011;1703;51.964;7.642;2023-01-16T15:47:04;1.87;;;1.27;;
3379;SDS011;1703;51.964;7.642;2023-01-16T15:49:47;0.90;;;0.70;;
3379;SDS011;1703;51.964;7.642;2023-01-16T15:52:26;0.63;;;0.60;;
3379;SDS011;1703;51.964;7.642;2023-01-16T15:54:54;1.20;;;1.00;;
3379;SDS011;1703;51.964;7.642;2023-01-16T15:57:22;1.20;;;0.70;;
3379;SDS011;1703;51.964;7.642;2023-01-16T15:59:50;0.60;;;0.60;;
3379;SDS011;1703;51.964;7.642;2023-01-16T16:02:19;4.33;;;1.00;;
3379;SDS011;1703;51.964;7.642;2023-01-16T16:04:48;1.17;;;0.90;;
3379;SDS011;1703;51.964;7.642;2023-01-16T16:07:18;1.00;;;0.80;;
3379;SDS011;1703;51.964;7.642;2023-01-16T16:09:46;1.00;;;0.70;;
3379;SDS011;1703;51.964;7.642;2023-01-16T16:12:15;1.73;;;0.90;;
3379;SDS011;1703;51.964;7.642;2023-01-16T16:14:44;2.23;;;0.80;;
3379;SDS011;1703;51.964;7.642;2023-01-16T16:17:29;1.27;;;1.10;;